Terminal Aerodrome Forecast
Issued by NWS

Home | Current Version | Previous Version | Text Only | Print | Product List | Glossary On
Versions: 1 2 3 4 5 6 7 8 9 10 11 12 13 14 15 16 17 18 19 20 21 22 23
000
FTUS44 KBMX 221700
TAFANB
TAF
KANB 221733Z 2218/2318 10005KT P6SM VCTS SCT025CB BKN035
      TEMPO 2219/2223 4SM SHRA BKN015
     FM230200 00000KT 6SM BR BKN250
     FM230800 00000KT 4SM BR BKN008
      TEMPO 2310/2312 2SM BR OVC005
     FM231530 21004KT P6SM SCT012 BKN025=

USA.gov is the U.S. government's official web portal to all federal, state and local government web resources and services.